Time;durP1;ratioP1;P1;durP2;ratioP2;P2;SDS_P1;SDS_P2;PMS_P1;PMS_P2;Temp;Humidity;BMP_temperature;BMP_pressure;BME280_temperature;BME280_humidity;BME280_pressure;Samples;Min_cycle;Max_cycle;Signal;HPM_P1;HPM_P2
2023/02/08 00:00:55;;;;;;;2.35;1.80;;;;;;;-3.27;49.36;97982.59;5073161;28;20052;-62
2023/02/08 00:03:22;;;;;;;2.53;2.15;;;;;;;-3.24;49.27;97981.03;5073051;28;20158;-63
2023/02/08 00:05:50;;;;;;;3.63;2.50;;;;;;;-3.24;48.67;97980.16;5073211;28;20076;-62
2023/02/08 00:08:17;;;;;;;3.83;2.28;;;;;;;-3.18;52.33;97986.41;5073296;28;20108;-62
2023/02/08 00:10:45;;;;;;;3.15;2.30;;;;;;;-3.18;52.13;97977.84;5073100;28;20052;-61
2023/02/08 00:13:12;;;;;;;5.35;2.63;;;;;;;-3.19;50.81;97979.50;5072792;28;20048;-62
2023/02/08 00:15:44;;;;;;;4.78;2.05;;;;;;;-3.15;51.71;97979.63;5073049;28;20044;-61
2023/02/08 00:18:12;;;;;;;3.85;2.45;;;;;;;-3.20;52.28;97985.47;5072805;28;20048;-61
2023/02/08 00:20:40;;;;;;;2.97;2.35;;;;;;;-3.27;51.25;97983.47;5073050;28;20098;-61
2023/02/08 00:23:08;;;;;;;3.22;2.20;;;;;;;-3.30;52.83;97979.09;5072894;28;20132;-63
2023/02/08 00:25:36;;;;;;;5.45;2.67;;;;;;;-3.32;51.67;97980.72;5072878;28;20044;-61
2023/02/08 00:28:04;;;;;;;3.42;2.33;;;;;;;-3.27;52.30;97973.22;5072941;28;20041;-62
2023/02/08 00:30:31;;;;;;;3.63;2.30;;;;;;;-3.27;53.18;97985.16;5072951;28;20123;-61
2023/02/08 00:33:00;;;;;;;3.70;2.53;;;;;;;-3.37;53.99;97983.91;5072893;28;20158;-61
2023/02/08 00:35:28;;;;;;;4.18;2.50;;;;;;;-3.37;53.57;97983.91;5072879;28;20080;-61
2023/02/08 00:37:55;;;;;;;3.60;2.42;;;;;;;-3.47;52.29;97983.53;5072868;28;20057;-63
2023/02/08 00:40:22;;;;;;;4.63;2.50;;;;;;;-3.44;54.92;97993.00;5072855;28;20071;-61
2023/02/08 00:42:50;;;;;;;3.42;2.13;;;;;;;-3.39;53.35;97993.19;5072849;28;20052;-63
2023/02/08 00:45:17;;;;;;;4.47;2.80;;;;;;;-3.41;53.32;97993.13;5072727;28;20051;-61
2023/02/08 00:47:44;;;;;;;3.92;2.55;;;;;;;-3.41;51.96;97998.25;5072788;28;20053;-61
2023/02/08 00:50:14;;;;;;;3.08;2.55;;;;;;;-3.41;50.03;97992.28;5072640;28;20123;-61
2023/02/08 00:52:41;;;;;;;3.20;2.40;;;;;;;-3.31;49.29;98005.50;5072623;28;20140;-61
2023/02/08 00:55:09;;;;;;;5.05;2.80;;;;;;;-3.28;51.03;98004.78;5072607;28;20140;-63
2023/02/08 00:57:36;;;;;;;4.03;2.67;;;;;;;-3.24;50.20;98010.88;5072594;28;20046;-61
2023/02/08 01:00:05;;;;;;;2.90;2.03;;;;;;;-3.25;50.41;98007.44;5072617;28;20570;-62
2023/02/08 01:02:33;;;;;;;3.80;2.92;;;;;;;-3.27;51.56;98006.50;5072467;28;20053;-61
2023/02/08 01:05:00;;;;;;;5.47;2.70;;;;;;;-3.27;51.83;98013.31;5072549;28;20135;-62
2023/02/08 01:07:29;;;;;;;3.95;2.80;;;;;;;-3.25;51.97;98014.25;5072574;28;20458;-61
2023/02/08 01:09:59;;;;;;;5.25;2.70;;;;;;;-3.22;52.18;98014.38;5072565;28;20052;-61
2023/02/08 01:12:26;;;;;;;5.53;2.83;;;;;;;-3.21;51.08;98014.44;5072313;28;20556;-62
2023/02/08 01:14:54;;;;;;;4.38;2.72;;;;;;;-3.21;50.14;98014.44;5072592;28;20050;-62
2023/02/08 01:17:21;;;;;;;5.30;2.80;;;;;;;-3.17;50.77;98013.75;5072482;28;20045;-61
2023/02/08 01:19:48;;;;;;;3.50;2.72;;;;;;;-3.29;50.50;98008.13;5072460;28;20055;-62
2023/02/08 01:22:15;;;;;;;4.82;2.88;;;;;;;-3.35;50.43;98016.44;5072318;28;20148;-62
2023/02/08 01:24:44;;;;;;;6.57;3.10;;;;;;;-3.33;51.07;98019.06;5072345;28;20055;-60
2023/02/08 01:27:11;;;;;;;5.40;2.85;;;;;;;-3.32;50.88;98015.69;5072404;28;20137;-62
2023/02/08 01:29:38;;;;;;;4.72;2.90;;;;;;;-3.28;50.36;98024.38;5074088;28;20491;-62
2023/02/08 01:32:06;;;;;;;5.35;2.92;;;;;;;-3.33;50.66;98012.25;5075884;28;20045;-62
2023/02/08 01:34:33;;;;;;;5.03;3.45;;;;;;;-3.36;51.22;98013.81;5075904;28;20094;-62
2023/02/08 01:37:00;;;;;;;8.13;4.30;;;;;;;-3.32;51.28;98018.22;5075956;28;20076;-62
2023/02/08 01:39:27;;;;;;;5.20;3.45;;;;;;;-3.30;50.98;98025.19;5075899;28;20131;-61
2023/02/08 01:41:55;;;;;;;4.45;3.22;;;;;;;-3.25;51.06;98025.34;5075723;28;20048;-61
2023/02/08 01:45:00;;;;;;;4.00;2.88;;;;;;;-3.26;50.84;98030.41;5075638;28;20101;-61
2023/02/08 01:47:27;;;;;;;6.05;3.63;;;;;;;-3.27;51.07;98026.09;5075728;28;20126;-62
2023/02/08 01:49:55;;;;;;;4.65;3.22;;;;;;;-3.27;51.93;98027.00;5075624;28;20041;-62
2023/02/08 01:52:28;;;;;;;7.70;4.20;;;;;;;-3.43;51.92;98031.47;5075503;28;20502;-63
2023/02/08 01:54:59;;;;;;;6.60;4.25;;;;;;;-3.49;52.67;98031.22;5075796;28;20052;-62
2023/02/08 01:57:28;;;;;;;7.22;4.57;;;;;;;-3.45;52.58;98030.56;5075578;28;20394;-63
2023/02/08 01:59:58;;;;;;;7.53;4.35;;;;;;;-3.43;52.50;98033.19;5075558;28;20055;-61
2023/02/08 02:02:26;;;;;;;7.30;3.72;;;;;;;-3.41;52.98;98034.09;5075397;28;20452;-61
2023/02/08 02:04:54;;;;;;;14.00;6.35;;;;;;;-3.47;53.78;98039.84;5075374;28;20066;-62
2023/02/08 02:07:23;;;;;;;10.52;5.45;;;;;;;-3.49;53.76;98035.47;5075198;28;20106;-62
2023/02/08 02:09:56;;;;;;;7.80;5.23;;;;;;;-3.53;54.05;98039.56;5075211;28;20040;-61
2023/02/08 02:12:24;;;;;;;10.20;5.40;;;;;;;-3.57;54.54;98038.59;5074969;28;20052;-62
2023/02/08 02:14:53;;;;;;;11.20;6.00;;;;;;;-3.49;54.38;98028.66;5075122;28;20553;-63
2023/02/08 02:17:20;;;;;;;10.02;5.65;;;;;;;-3.49;54.70;98043.16;5075034;28;20565;-63
2023/02/08 02:19:56;;;;;;;11.02;6.47;;;;;;;-3.53;54.91;98038.72;5075133;28;20048;-63
2023/02/08 02:23:07;;;;;;;10.52;6.82;;;;;;;-3.45;54.99;98043.34;5074881;28;20040;-61
2023/02/08 02:26:15;;;;;;;11.95;6.05;;;;;;;-3.47;55.42;98049.19;5020708;28;20394;-60
2023/02/08 02:29:23;;;;;;;12.88;6.88;;;;;;;-3.55;55.59;98047.19;5053360;28;20046;-62
2023/02/08 02:32:11;;;;;;;12.15;6.45;;;;;;;-3.59;55.70;98044.44;5074781;28;20094;-62
2023/02/08 02:34:43;;;;;;;12.85;7.35;;;;;;;-3.64;56.07;98045.94;5074664;28;20041;-61
2023/02/08 02:37:23;;;;;;;13.95;7.53;;;;;;;-3.73;56.20;98046.41;5074654;28;20106;-62
2023/02/08 02:40:00;;;;;;;12.23;6.93;;;;;;;-3.68;56.67;98050.03;5074572;28;20102;-63
2023/02/08 02:45:32;;;;;;;14.80;8.27;;;;;;;-3.81;57.37;98051.19;5056817;28;20055;-61
2023/02/08 02:48:06;;;;;;;16.48;8.88;;;;;;;-3.89;58.16;98055.13;5074448;28;20048;-62
2023/02/08 02:50:38;;;;;;;12.18;6.95;;;;;;;-3.87;57.94;98056.94;5074459;28;20143;-63
2023/02/08 02:53:10;;;;;;;14.68;8.10;;;;;;;-3.91;58.10;98060.16;5074363;28;20460;-61
2023/02/08 02:55:44;;;;;;;15.38;9.25;;;;;;;-3.92;58.41;98045.59;5074386;28;20072;-62
2023/02/08 02:58:13;;;;;;;12.38;7.30;;;;;;;-3.90;58.71;98046.56;5074319;28;20083;-61
2023/02/08 03:00:41;;;;;;;12.82;8.15;;;;;;;-4.01;58.66;98060.56;5074239;28;20101;-62
2023/02/08 03:03:20;;;;;;;11.80;7.35;;;;;;;-4.04;58.93;98057.88;5074070;28;20052;-60
2023/02/08 03:05:47;;;;;;;15.48;8.43;;;;;;;-4.12;58.94;98066.06;5074194;28;20053;-62
2023/02/08 03:08:31;;;;;;;14.77;8.70;;;;;;;-4.20;59.41;98063.19;5074144;28;20045;-62
2023/02/08 03:11:15;;;;;;;17.48;10.13;;;;;;;-4.19;59.59;98058.91;5074062;28;20052;-61
2023/02/08 03:13:56;;;;;;;12.80;9.30;;;;;;;-4.22;59.68;98063.88;5073657;28;20413;-62
2023/02/08 03:16:31;;;;;;;17.65;9.80;;;;;;;-4.25;59.78;98062.09;5073933;28;20490;-62
2023/02/08 03:19:07;;;;;;;15.35;9.27;;;;;;;-4.27;59.88;98075.59;5073918;28;20051;-60
2023/02/08 03:21:43;;;;;;;13.75;8.13;;;;;;;-4.37;60.22;98072.63;5073898;28;20048;-62
2023/02/08 03:24:23;;;;;;;18.58;8.50;;;;;;;-4.36;60.40;98063.28;5073660;28;20494;-62
2023/02/08 03:26:58;;;;;;;13.57;8.77;;;;;;;-4.33;60.54;98065.97;5073717;28;20131;-63
2023/02/08 03:29:37;;;;;;;14.60;8.40;;;;;;;-4.38;60.13;98059.78;5073741;28;20045;-61
2023/02/08 03:32:09;;;;;;;16.33;9.20;;;;;;;-4.36;60.62;98063.28;5073594;28;20106;-60
2023/02/08 03:34:46;;;;;;;15.88;8.38;;;;;;;-4.41;60.60;98064.75;5073665;28;20045;-63
2023/02/08 03:37:18;;;;;;;14.35;9.25;;;;;;;-4.51;61.08;98071.13;5073482;28;20048;-62
2023/02/08 03:39:47;;;;;;;15.55;7.93;;;;;;;-4.49;61.21;98069.53;5073458;28;20040;-61
2023/02/08 03:42:19;;;;;;;14.25;8.52;;;;;;;-4.51;61.09;98072.00;5073512;28;20055;-61
2023/02/08 03:44:51;;;;;;;13.95;8.30;;;;;;;-4.52;61.25;98075.34;5073390;28;20061;-62
2023/02/08 03:47:22;;;;;;;13.68;7.88;;;;;;;-4.51;61.26;98082.22;5073403;28;20123;-62
2023/02/08 03:49:53;;;;;;;17.35;9.15;;;;;;;-4.55;61.37;98079.47;5073411;28;20041;-60
2023/02/08 03:52:22;;;;;;;18.92;8.82;;;;;;;-4.61;62.19;98082.59;5072865;28;20049;-61
2023/02/08 03:54:53;;;;;;;14.07;8.02;;;;;;;-4.54;61.53;98089.75;5073251;28;20102;-61
2023/02/08 03:57:24;;;;;;;16.25;9.00;;;;;;;-4.48;61.99;98099.38;5073280;28;20127;-62
2023/02/08 03:59:55;;;;;;;13.63;8.18;;;;;;;-4.44;61.80;98094.47;5073196;28;20048;-62
2023/02/08 04:02:27;;;;;;;18.98;9.48;;;;;;;-4.42;61.45;98094.56;5073174;28;20049;-62
2023/02/08 04:04:58;;;;;;;16.88;8.25;;;;;;;-4.41;61.53;98096.28;5073136;28;20053;-61
2023/02/08 04:07:25;;;;;;;13.73;9.07;;;;;;;-4.42;61.63;98102.22;5073169;28;20490;-61
2023/02/08 04:09:53;;;;;;;15.43;8.82;;;;;;;-4.40;61.60;98098.03;5073124;28;20048;-61
2023/02/08 04:12:20;;;;;;;16.17;8.23;;;;;;;-4.51;62.01;98097.56;5072880;28;20168;-62
2023/02/08 04:14:47;;;;;;;14.57;9.13;;;;;;;-4.49;62.20;98110.41;5073090;28;20499;-61
2023/02/08 04:17:14;;;;;;;15.82;8.70;;;;;;;-4.47;62.30;98111.34;5073100;28;20407;-61
2023/02/08 04:19:41;;;;;;;17.88;9.95;;;;;;;-4.47;62.46;98116.44;5073012;28;20048;-62
2023/02/08 04:22:10;;;;;;;15.93;8.63;;;;;;;-4.48;62.62;98122.38;5072924;28;20049;-61
2023/02/08 04:24:37;;;;;;;15.75;8.55;;;;;;;-4.41;62.30;98118.41;5072810;28;20106;-62
2023/02/08 04:27:04;;;;;;;17.05;9.45;;;;;;;-4.44;62.30;98121.69;5072915;28;20059;-62
2023/02/08 04:29:32;;;;;;;19.77;10.93;;;;;;;-4.44;62.67;98126.81;5072969;28;20051;-63
2023/02/08 04:32:00;;;;;;;19.27;10.98;;;;;;;-4.37;62.57;98130.53;5072858;28;20049;-62
2023/02/08 04:34:27;;;;;;;15.27;10.02;;;;;;;-4.31;63.00;98131.69;5072929;28;20413;-63
2023/02/08 04:36:54;;;;;;;26.00;14.93;;;;;;;-4.33;63.63;98129.88;5072850;28;20177;-62
2023/02/08 04:39:23;;;;;;;18.33;10.50;;;;;;;-4.29;63.47;98146.22;5072830;28;20139;-61
2023/02/08 04:41:50;;;;;;;22.77;10.45;;;;;;;-4.29;63.30;98144.53;5072706;28;20040;-61
2023/02/08 04:44:17;;;;;;;18.58;10.32;;;;;;;-4.25;62.86;98146.44;5072617;28;20055;-63
2023/02/08 04:46:44;;;;;;;23.73;14.55;;;;;;;-4.15;63.05;98151.97;5072785;28;20486;-62
2023/02/08 04:49:11;;;;;;;18.20;10.40;;;;;;;-4.11;62.91;98164.09;5072753;28;20055;-61
2023/02/08 04:51:38;;;;;;;24.65;12.52;;;;;;;-4.06;62.93;98165.19;5072734;28;20048;-62
2023/02/08 04:54:06;;;;;;;15.98;9.65;;;;;;;-4.06;62.67;98163.50;5072690;28;20047;-63
2023/02/08 04:56:36;;;;;;;17.63;9.85;;;;;;;-4.08;62.90;98165.13;5072669;28;20499;-62
2023/02/08 04:59:03;;;;;;;16.25;10.55;;;;;;;-4.10;63.01;98166.72;5072660;28;20041;-62
2023/02/08 05:01:30;;;;;;;21.02;9.65;;;;;;;-4.11;63.27;98174.31;5072590;28;20076;-62
2023/02/08 05:03:58;;;;;;;14.52;8.95;;;;;;;-4.15;63.08;98175.88;5073382;28;20080;-63
2023/02/08 05:06:25;;;;;;;17.48;9.93;;;;;;;-4.19;63.35;98174.84;5076399;28;20040;-62
2023/02/08 05:08:52;;;;;;;14.70;9.35;;;;;;;-4.20;63.53;98178.22;5076504;28;20131;-61
2023/02/08 05:11:21;;;;;;;18.35;9.18;;;;;;;-4.18;63.49;98183.41;5076399;28;20048;-63
2023/02/08 05:13:50;;;;;;;19.83;9.70;;;;;;;-4.23;63.51;98178.06;5076184;28;20467;-61
2023/02/08 05:16:18;;;;;;;17.75;10.60;;;;;;;-4.14;63.74;98184.41;5076332;28;20053;-61
2023/02/08 05:18:45;;;;;;;16.60;10.18;;;;;;;-4.14;64.04;98185.28;5076211;28;20041;-62
2023/02/08 05:21:12;;;;;;;17.05;9.68;;;;;;;-4.12;63.78;98186.22;5076150;28;20402;-62
2023/02/08 05:23:40;;;;;;;20.83;10.07;;;;;;;-4.04;63.43;98188.28;5076085;28;20044;-63
2023/02/08 05:26:08;;;;;;;16.35;9.07;;;;;;;-3.98;63.27;98191.09;5076108;28;20052;-62
2023/02/08 05:28:40;;;;;;;16.50;9.75;;;;;;;-4.04;63.27;98194.25;5076066;28;20041;-62
2023/02/08 05:31:14;;;;;;;15.98;10.18;;;;;;;-4.12;63.30;98196.44;5075968;28;20044;-61
2023/02/08 05:33:41;;;;;;;18.63;9.75;;;;;;;-4.17;63.71;98197.94;5075957;28;20399;-62
2023/02/08 05:36:09;;;;;;;16.83;9.77;;;;;;;-4.23;63.64;98203.63;5075851;28;20052;-60
2023/02/08 05:38:36;;;;;;;14.88;9.75;;;;;;;-4.21;63.50;98207.13;5075850;28;20491;-61
2023/02/08 05:41:04;;;;;;;16.27;9.48;;;;;;;-4.22;63.92;98210.50;5075861;28;20052;-60
2023/02/08 05:43:31;;;;;;;16.20;9.13;;;;;;;-4.23;64.08;98210.41;5075548;28;20056;-61
2023/02/08 05:45:58;;;;;;;17.77;9.40;;;;;;;-4.31;64.00;98208.38;5075678;28;20135;-63
2023/02/08 05:48:27;;;;;;;17.25;8.52;;;;;;;-4.33;64.08;98202.31;5075587;28;20056;-62
2023/02/08 05:50:54;;;;;;;13.90;6.97;;;;;;;-4.38;64.07;98193.56;5075604;28;20556;-62
2023/02/08 05:53:22;;;;;;;14.23;8.25;;;;;;;-4.28;64.28;98202.53;5075712;28;20453;-61
2023/02/08 05:55:49;;;;;;;14.00;8.27;;;;;;;-4.28;64.30;98192.31;5075532;28;20044;-61
2023/02/08 05:58:17;;;;;;;11.07;7.13;;;;;;;-4.31;63.88;98207.47;5075411;28;20487;-63
2023/02/08 06:00:47;;;;;;;17.13;8.27;;;;;;;-4.32;64.38;98193.84;5075502;28;20644;-62
2023/02/08 06:03:14;;;;;;;11.32;5.80;;;;;;;-4.30;64.06;98206.72;5075401;28;20444;-61
2023/02/08 06:05:43;;;;;;;13.68;7.38;;;;;;;-4.33;64.35;98206.56;5075293;28;20052;-62
2023/02/08 06:08:11;;;;;;;10.48;5.70;;;;;;;-4.27;64.79;98205.97;5075279;28;20569;-62
2023/02/08 06:10:38;;;;;;;12.30;7.28;;;;;;;-4.23;64.71;98201.06;5075252;28;20048;-62
2023/02/08 06:13:05;;;;;;;13.45;8.63;;;;;;;-4.20;64.83;98215.69;5075088;28;20419;-62
2023/02/08 06:15:32;;;;;;;14.85;8.10;;;;;;;-4.22;64.71;98223.28;5074743;28;20072;-62
2023/02/08 06:18:00;;;;;;;13.05;7.95;;;;;;;-4.26;65.11;98221.38;5075142;28;20128;-62
2023/02/08 06:20:27;;;;;;;15.40;8.65;;;;;;;-4.19;64.88;98225.97;5075047;28;20094;-61
2023/02/08 06:22:56;;;;;;;18.23;9.55;;;;;;;-4.15;64.79;98215.91;5074995;28;20044;-60
2023/02/08 06:25:23;;;;;;;15.48;8.27;;;;;;;-4.07;65.02;98224.78;5074984;28;20083;-62
2023/02/08 06:27:50;;;;;;;12.77;8.10;;;;;;;-3.97;63.79;98226.13;5074785;28;20042;-62
2023/02/08 06:30:17;;;;;;;14.13;7.88;;;;;;;-3.83;63.66;98216.50;5074942;28;20126;-61
2023/02/08 06:32:44;;;;;;;14.07;8.32;;;;;;;-3.73;63.54;98225.50;5074782;28;20052;-62
2023/02/08 06:35:12;;;;;;;13.32;7.72;;;;;;;-3.65;63.33;98221.59;5074748;28;20521;-62
2023/02/08 06:37:39;;;;;;;13.57;8.13;;;;;;;-3.45;63.28;98221.63;5074703;28;20045;-62
2023/02/08 06:40:09;;;;;;;13.85;8.27;;;;;;;-3.26;63.66;98223.31;5074737;28;20044;-62
2023/02/08 06:42:37;;;;;;;14.50;8.10;;;;;;;-1.92;59.63;98218.47;5074588;28;20123;-61
2023/02/08 06:45:07;;;;;;;13.23;7.60;;;;;;;-1.12;56.68;98223.09;5074455;28;20509;-62
2023/02/08 06:47:34;;;;;;;14.75;9.32;;;;;;;-0.19;54.02;98223.63;5074511;28;20090;-61
2023/02/08 06:50:01;;;;;;;11.98;7.50;;;;;;;0.52;51.72;98215.41;5074484;28;20080;-62
2023/02/08 06:52:28;;;;;;;14.35;8.93;;;;;;;1.06;50.80;98222.09;5074503;28;20148;-62
2023/02/08 06:54:55;;;;;;;15.57;9.13;;;;;;;1.56;48.98;98218.19;5074430;28;20056;-63
2023/02/08 06:57:24;;;;;;;13.30;8.40;;;;;;;2.25;47.93;98217.19;5074385;28;20102;-62
2023/02/08 06:59:51;;;;;;;11.65;7.80;;;;;;;2.73;45.33;98227.66;5074316;28;20495;-62
2023/02/08 07:02:19;;;;;;;14.70;8.35;;;;;;;2.54;44.87;98227.28;5074170;28;20143;-61
2023/02/08 07:04:47;;;;;;;11.00;7.68;;;;;;;2.13;45.87;98226.41;5074134;28;20052;-62
2023/02/08 07:07:15;;;;;;;14.90;8.10;;;;;;;2.27;45.41;98231.91;5074132;28;20048;-62
2023/02/08 07:09:43;;;;;;;13.05;7.30;;;;;;;2.81;43.34;98240.75;5074112;28;20053;-62
2023/02/08 07:12:10;;;;;;;11.68;7.53;;;;;;;2.42;43.99;98251.16;5074122;28;20124;-63
2023/02/08 07:14:41;;;;;;;11.43;8.07;;;;;;;2.41;43.96;98241.66;5034084;28;20132;-63
2023/02/08 07:17:08;;;;;;;10.60;7.10;;;;;;;2.22;43.77;98242.94;5034022;28;20072;-63
2023/02/08 07:19:35;;;;;;;10.90;7.60;;;;;;;1.36;45.06;98246.91;5033990;28;20049;-61
2023/02/08 07:22:06;;;;;;;11.55;7.05;;;;;;;2.32;44.28;98249.19;5034178;28;20052;-63
2023/02/08 07:24:34;;;;;;;12.13;7.30;;;;;;;2.94;41.87;98254.78;5033795;28;20055;-61
2023/02/08 07:27:01;;;;;;;10.23;6.78;;;;;;;3.35;41.22;98254.72;5033242;28;20499;-63
2023/02/08 07:29:29;;;;;;;9.80;6.72;;;;;;;3.01;41.53;98261.84;5033891;28;20048;-62
2023/02/08 07:31:59;;;;;;;9.00;6.25;;;;;;;2.70;40.90;98258.59;5033789;28;20121;-63
2023/02/08 07:34:26;;;;;;;10.27;7.25;;;;;;;2.57;42.18;98265.22;5033749;28;20095;-61
2023/02/08 07:36:53;;;;;;;10.02;6.82;;;;;;;2.85;41.07;98261.53;5033716;28;20549;-62
2023/02/08 07:39:21;;;;;;;13.55;6.85;;;;;;;3.54;40.99;98255.03;5033682;28;20042;-62
2023/02/08 07:41:48;;;;;;;10.90;6.95;;;;;;;4.74;38.73;98258.56;5033606;28;20042;-63
2023/02/08 07:44:15;;;;;;;9.85;7.13;;;;;;;4.59;37.73;98265.31;5033469;28;20092;-64
2023/02/08 07:46:42;;;;;;;10.57;6.80;;;;;;;3.27;39.76;98271.81;5033537;28;20510;-63
2023/02/08 07:49:11;;;;;;;10.38;7.10;;;;;;;2.54;41.26;98271.22;5033516;28;20041;-62
2023/02/08 07:51:38;;;;;;;9.60;7.15;;;;;;;2.38;42.19;98270.88;5033448;28;20060;-63
2023/02/08 07:54:05;;;;;;;10.80;7.25;;;;;;;3.40;40.92;98271.19;5033486;28;20045;-63
2023/02/08 07:56:33;;;;;;;10.40;6.80;;;;;;;3.98;38.98;98268.72;5033394;28;20507;-63
2023/02/08 07:59:00;;;;;;;10.77;7.40;;;;;;;4.36;37.89;98280.53;5033580;28;20049;-62
2023/02/08 08:01:27;;;;;;;15.30;7.82;;;;;;;3.39;39.68;98276.34;5033285;28;20045;-63
2023/02/08 08:03:54;;;;;;;11.18;8.27;;;;;;;2.38;41.49;98285.50;5033256;28;20529;-63
2023/02/08 08:06:23;;;;;;;10.63;7.68;;;;;;;1.77;42.56;98287.53;5033172;28;20056;-63
2023/02/08 08:08:51;;;;;;;11.48;6.72;;;;;;;1.23;43.36;98294.72;5033270;28;20095;-62
2023/02/08 08:11:19;;;;;;;9.32;6.53;;;;;;;0.43;45.57;98294.16;5033185;28;20045;-62
2023/02/08 08:13:46;;;;;;;9.75;6.63;;;;;;;-0.16;47.32;98294.88;5059302;28;20055;-62
2023/02/08 08:16:14;;;;;;;11.05;7.70;;;;;;;0.02;47.93;98292.03;5073161;28;20094;-63
2023/02/08 08:18:41;;;;;;;12.57;7.63;;;;;;;0.59;45.52;98294.63;5073041;28;20044;-62
2023/02/08 08:21:09;;;;;;;11.10;7.03;;;;;;;0.20;46.36;98293.44;5073104;28;20410;-63
2023/02/08 08:23:37;;;;;;;12.10;6.85;;;;;;;-0.54;47.86;98298.78;5073169;28;20059;-62
2023/02/08 08:26:09;;;;;;;11.90;7.63;;;;;;;-0.96;49.53;98299.88;5072979;28;20060;-62
2023/02/08 08:28:37;;;;;;;13.52;7.70;;;;;;;-1.38;50.60;98303.50;5072976;28;20048;-62
2023/02/08 08:31:10;;;;;;;11.55;7.70;;;;;;;-1.38;51.19;98303.50;5072970;28;20048;-62
2023/02/08 08:33:37;;;;;;;11.23;7.78;;;;;;;-1.61;51.59;98308.63;5073104;28;20461;-62
2023/02/08 08:36:04;;;;;;;13.18;7.68;;;;;;;-1.31;51.90;98305.50;5073034;28;20041;-63
2023/02/08 08:38:32;;;;;;;8.90;5.50;;;;;;;-0.98;49.43;98304.09;5074757;28;20475;-61
2023/02/08 08:41:01;;;;;;;7.43;5.35;;;;;;;-1.09;49.29;98305.44;5077047;28;20671;-62
2023/02/08 08:43:28;;;;;;;12.43;6.65;;;;;;;-1.10;49.95;98319.06;5076992;28;20080;-61
2023/02/08 08:45:55;;;;;;;10.63;6.25;;;;;;;-1.07;49.19;98319.19;5076760;28;20056;-61
2023/02/08 08:48:22;;;;;;;15.00;6.40;;;;;;;-0.86;49.64;98313.06;5076789;28;20044;-62
2023/02/08 08:50:49;;;;;;;11.73;7.70;;;;;;;-0.71;49.74;98312.75;5076750;28;20048;-61
2023/02/08 08:53:18;;;;;;;13.13;8.50;;;;;;;-0.64;50.45;98314.72;5076790;28;20132;-62
2023/02/08 08:55:45;;;;;;;11.35;7.32;;;;;;;-0.55;48.98;98314.16;5076727;28;20049;-62
2023/02/08 08:58:14;;;;;;;10.18;7.05;;;;;;;-0.71;49.31;98315.31;5076541;28;20128;-62
2023/02/08 09:00:41;;;;;;;11.68;7.57;;;;;;;-0.98;48.87;98314.38;5076662;28;20098;-62
2023/02/08 09:03:08;;;;;;;11.82;6.85;;;;;;;-1.07;49.50;98319.19;5076704;28;20482;-63
2023/02/08 09:05:35;;;;;;;10.25;6.63;;;;;;;-1.02;50.14;98320.25;5076423;28;20513;-62
2023/02/08 09:08:02;;;;;;;10.07;6.80;;;;;;;-1.25;49.72;98320.25;5076428;28;20060;-61
2023/02/08 09:10:30;;;;;;;11.40;6.63;;;;;;;-1.25;50.42;98327.97;5076348;28;20410;-62
2023/02/08 09:12:57;;;;;;;13.10;6.47;;;;;;;-1.25;50.30;98337.34;5076014;28;20066;-63
2023/02/08 09:15:25;;;;;;;13.25;7.60;;;;;;;-1.57;51.16;98330.16;5076298;28;20564;-62
2023/02/08 09:17:52;;;;;;;9.48;5.88;;;;;;;-1.46;50.53;98333.13;5076348;28;20072;-63
2023/02/08 09:20:20;;;;;;;11.90;7.25;;;;;;;-1.21;51.86;98334.94;5076278;28;20041;-62
2023/02/08 09:22:47;;;;;;;12.85;7.00;;;;;;;-1.05;49.67;98340.69;5076228;28;20052;-62
2023/02/08 09:25:14;;;;;;;11.45;6.75;;;;;;;-1.12;49.65;98338.72;5076126;28;20162;-62
2023/02/08 09:27:41;;;;;;;9.57;5.32;;;;;;;-1.02;49.16;98346.78;5076135;28;20090;-63
2023/02/08 09:30:10;;;;;;;8.93;5.43;;;;;;;-1.43;48.51;98349.56;5076303;28;20493;-62
2023/02/08 09:32:39;;;;;;;9.68;5.40;;;;;;;-1.65;48.88;98358.97;5076011;28;20090;-62
2023/02/08 09:35:06;;;;;;;6.13;4.65;;;;;;;-1.95;49.73;98356.06;5075906;28;20127;-62
2023/02/08 09:37:34;;;;;;;10.55;5.80;;;;;;;-1.80;50.44;98353.25;5075828;28;20419;-62
2023/02/08 09:40:01;;;;;;;9.55;4.65;;;;;;;-1.66;48.48;98361.47;5075952;28;20417;-61
2023/02/08 09:42:39;;;;;;;8.38;4.72;;;;;;;-1.72;49.79;98343.28;5075696;28;20569;-62
2023/02/08 09:45:39;;;;;;;9.18;5.07;;;;;;;-1.55;48.17;98357.66;5075838;28;20120;-63
2023/02/08 09:48:19;;;;;;;8.15;4.22;;;;;;;-1.24;47.76;98352.81;5075711;28;20052;-62
2023/02/08 09:50:51;;;;;;;8.98;5.57;;;;;;;-0.97;46.37;98336.69;5075026;28;20045;-62
2023/02/08 09:53:22;;;;;;;7.97;4.75;;;;;;;-0.59;46.15;98338.00;5075613;28;20044;-63
2023/02/08 09:55:53;;;;;;;6.97;4.50;;;;;;;-0.44;44.61;98335.09;5075595;28;20477;-62
2023/02/08 09:58:26;;;;;;;9.88;6.45;;;;;;;-0.32;45.78;98322.69;5075542;28;20476;-63
2023/02/08 10:00:55;;;;;;;8.18;4.25;;;;;;;-0.40;45.16;98337.84;5075431;28;20044;-62
2023/02/08 10:03:32;;;;;;;9.68;4.85;;;;;;;-1.02;45.42;98343.38;5075475;28;20052;-63
2023/02/08 10:06:00;;;;;;;9.45;5.28;;;;;;;-1.34;47.01;98333.63;5075347;28;20052;-64
2023/02/08 10:08:29;;;;;;;11.10;5.75;;;;;;;-1.31;47.34;98333.75;5075272;28;20049;-63
2023/02/08 10:11:05;;;;;;;10.95;5.30;;;;;;;-1.23;45.75;98318.63;5075302;28;20136;-63
2023/02/08 10:14:00;;;;;;;7.95;4.32;;;;;;;-1.24;45.56;98329.69;5075027;28;20128;-62
2023/02/08 10:17:00;;;;;;;7.15;3.90;;;;;;;-1.07;44.01;98326.88;5075274;28;20106;-61
2023/02/08 10:19:50;;;;;;;5.73;3.93;;;;;;;-0.85;44.38;98335.41;5075067;28;20055;-62
2023/02/08 10:22:33;;;;;;;7.38;5.15;;;;;;;-0.68;44.23;98328.28;5075169;28;20313;-62
2023/02/08 10:25:16;;;;;;;10.07;4.68;;;;;;;-0.58;43.18;98332.03;5074929;28;20131;-61
2023/02/08 10:27:53;;;;;;;6.35;4.20;;;;;;;-0.76;42.46;98320.28;5074922;28;20119;-64
2023/02/08 10:30:33;;;;;;;10.95;4.63;;;;;;;-0.76;43.59;98320.28;5074873;28;20051;-63
2023/02/08 10:33:03;;;;;;;9.52;5.35;;;;;;;-0.69;43.52;98324.81;5074815;28;20044;-64
2023/02/08 10:35:36;;;;;;;6.93;4.35;;;;;;;-0.79;44.60;98325.31;5074846;28;20044;-64
2023/02/08 10:38:18;;;;;;;7.93;5.00;;;;;;;-0.66;44.77;98332.66;5074695;28;20505;-65
2023/02/08 10:40:50;;;;;;;6.15;4.20;;;;;;;-0.66;44.46;98345.50;5074636;28;20538;-62
2023/02/08 10:43:32;;;;;;;8.05;4.68;;;;;;;-0.95;45.36;98337.63;5074755;28;20045;-63
2023/02/08 10:46:08;;;;;;;6.68;4.53;;;;;;;-0.98;44.60;98334.06;5074521;28;20049;-62
2023/02/08 10:48:45;;;;;;;5.88;4.10;;;;;;;-0.92;43.98;98342.88;5074502;28;20123;-62
2023/02/08 10:51:16;;;;;;;6.22;3.92;;;;;;;-0.94;44.15;98341.06;5074531;28;20044;-61
2023/02/08 10:53:43;;;;;;;7.22;4.50;;;;;;;-0.75;44.04;98342.63;5074478;28;20084;-63
2023/02/08 10:56:24;;;;;;;8.43;4.15;;;;;;;-0.95;43.88;98329.91;5074360;28;20040;-62
2023/02/08 10:58:52;;;;;;;8.43;4.60;;;;;;;-1.38;45.23;98334.34;5074345;28;20048;-62
2023/02/08 11:01:19;;;;;;;6.65;4.28;;;;;;;-1.29;45.34;98320.97;5073383;28;20044;-62
2023/02/08 11:04:01;;;;;;;7.63;4.95;;;;;;;-1.29;46.20;98326.09;5073141;28;20056;-62
2023/02/08 11:06:35;;;;;;;7.50;3.97;;;;;;;-1.15;46.58;98335.19;5074120;28;20048;-63
2023/02/08 11:09:02;;;;;;;7.25;3.67;;;;;;;-1.53;45.45;98324.34;5073699;28;20110;-61
2023/02/08 11:11:35;;;;;;;7.53;4.88;;;;;;;-1.37;46.83;98324.91;5074197;28;20048;-62
2023/02/08 11:14:16;;;;;;;7.70;4.72;;;;;;;-1.40;46.23;98326.56;5073947;28;20040;-62
2023/02/08 11:16:50;;;;;;;8.48;4.90;;;;;;;-1.49;45.79;98322.75;5073947;28;20087;-62
2023/02/08 11:19:23;;;;;;;6.47;3.78;;;;;;;-1.47;46.32;98329.72;5073966;28;20050;-62
2023/02/08 11:21:52;;;;;;;8.43;4.85;;;;;;;-1.48;46.61;98325.38;5074076;28;20055;-61
2023/02/08 11:24:28;;;;;;;5.30;3.38;;;;;;;-1.68;46.61;98322.06;5073966;28;20093;-64
2023/02/08 11:26:56;;;;;;;8.02;4.65;;;;;;;-1.79;46.24;98340.47;5073805;28;20070;-62
2023/02/08 11:29:25;;;;;;;11.43;5.45;;;;;;;-1.78;46.58;98329.38;5073841;28;20109;-63
2023/02/08 11:31:59;;;;;;;6.70;3.83;;;;;;;-1.71;47.27;98324.50;5073776;28;20047;-62
2023/02/08 11:34:38;;;;;;;6.18;3.80;;;;;;;-1.74;46.23;98324.38;5073669;28;20052;-61
2023/02/08 11:37:15;;;;;;;7.05;4.68;;;;;;;-1.42;47.18;98307.66;5073631;28;20504;-62
2023/02/08 11:39:48;;;;;;;6.40;3.70;;;;;;;-1.29;44.63;98316.69;5073687;28;20544;-62
2023/02/08 11:42:20;;;;;;;9.75;5.32;;;;;;;-1.25;44.96;98314.22;5073566;28;20071;-61
2023/02/08 11:44:48;;;;;;;7.03;4.43;;;;;;;-1.11;45.05;98314.75;5073531;28;20502;-63
2023/02/08 11:47:24;;;;;;;8.40;4.20;;;;;;;-0.98;44.99;98316.97;5072699;28;20512;-62